Terminal Aerodrome Forecast
Issued by NWS Lake Charles, LA

Home | Current Version | Previous Version | Text Only | Print | Product List | Glossary On
Versions: 1 2 3 4 5 6 7 8 9 10 11 12 13 14 15 16 17 18 19 20 21 22
000
FTUS44 KLCH 290500
TAFBPT
TAF
KBPT 290523Z 2906/3006 01005KT P6SM BKN008 OVC015
     FM290900 36005KT 4SM BR BKN004 OVC008
     FM291400 01005KT P6SM OVC005
     FM291700 02005KT P6SM BKN010
     FM300000 VRB04KT P6SM BKN012=

USA.gov is the U.S. government's official web portal to all federal, state and local government web resources and services.